Time;durP1;ratioP1;P1;durP2;ratioP2;P2;SDS_P1;SDS_P2;PMS_P1;PMS_P2;Temp;Humidity;BMP_temperature;BMP_pressure;BME280_temperature;BME280_humidity;BME280_pressure;Samples;Min_cycle;Max_cycle;Signal;HPM_P1;HPM_P2
2023/08/28 00:02:03;;;;;;;;;;;12.90;99.90;;;;;;5055627;28;20368;-86
2023/08/28 00:04:29;;;;;;;;;;;12.90;99.90;;;;;;5055967;28;19984;-88
2023/08/28 00:06:54;;;;;;;;;;;12.90;99.90;;;;;;5057441;28;19924;-87
2023/08/28 00:09:20;;;;;;;;;;;12.90;99.90;;;;;;5057674;28;19924;-88
2023/08/28 00:11:45;;;;;;;;;;;12.80;99.90;;;;;;5040344;28;19920;-88
2023/08/28 00:14:11;;;;;;;;;;;12.90;99.90;;;;;;5076497;28;19920;-90
2023/08/28 00:16:37;;;;;;;;;;;12.80;99.90;;;;;;5074742;28;19964;-87
2023/08/28 00:19:03;;;;;;;;;;;12.90;99.90;;;;;;5057026;28;19927;-88
2023/08/28 00:21:29;;;;;;;;;;;12.80;99.90;;;;;;5055345;28;20292;-88
2023/08/28 00:23:54;;;;;;;;;;;12.80;99.90;;;;;;5074693;28;19920;-87
2023/08/28 00:26:20;;;;;;;;;;;12.80;99.90;;;;;;5057089;28;20481;-88
2023/08/28 00:28:45;;;;;;;;;;;12.80;99.90;;;;;;5066315;28;19973;-87
2023/08/28 00:31:11;;;;;;;;;;;12.80;99.90;;;;;;5057785;28;19980;-88
2023/08/28 00:33:36;;;;;;;;;;;12.80;99.90;;;;;;5075099;28;19951;-88
2023/08/28 00:36:02;;;;;;;;;;;12.80;99.90;;;;;;5041175;28;19942;-89
2023/08/28 00:38:28;;;;;;;;;;;12.70;99.90;;;;;;5056889;28;20013;-89
2023/08/28 00:40:53;;;;;;;;;;;12.70;99.90;;;;;;5060234;28;19947;-88
2023/08/28 00:43:19;;;;;;;;;;;13.10;99.90;;;;;;5078498;28;19983;-89
2023/08/28 00:45:44;;;;;;;;;;;12.70;99.90;;;;;;5060783;28;20027;-88
2023/08/28 00:48:11;;;;;;;;;;;12.80;99.90;;;;;;5058205;28;19961;-90
2023/08/28 00:50:37;;;;;;;;;;;12.70;99.90;;;;;;5053612;28;19982;-89
2023/08/28 00:53:03;;;;;;;;;;;12.70;99.90;;;;;;5070103;28;19998;-89
2023/08/28 00:55:31;;;;;;;;;;;12.70;99.90;;;;;;5050956;28;20441;-87
2023/08/28 00:57:56;;;;;;;;;;;13.00;99.90;;;;;;5054710;28;19958;-86
2023/08/28 01:00:22;;;;;;;;;;;12.70;99.90;;;;;;5067379;28;19946;-88
2023/08/28 01:02:47;;;;;;;;;;;12.70;99.90;;;;;;5070635;28;19949;-88
2023/08/28 01:05:14;;;;;;;;;;;12.70;99.90;;;;;;5055482;28;19958;-88
2023/08/28 01:07:49;;;;;;;;;;;12.70;99.90;;;;;;5073370;28;19967;-88
2023/08/28 01:10:27;;;;;;;;;;;12.70;99.90;;;;;;5055656;28;19967;-88
2023/08/28 01:12:52;;;;;;;;;;;12.70;99.90;;;;;;5055441;28;19969;-85
2023/08/28 01:15:20;;;;;;;;;;;12.70;99.90;;;;;;5057853;28;20338;-88
2023/08/28 01:17:48;;;;;;;;;;;12.70;99.90;;;;;;5054515;28;19958;-89
2023/08/28 01:20:15;;;;;;;;;;;12.70;99.90;;;;;;5053647;28;20040;-89
2023/08/28 01:22:40;;;;;;;;;;;12.70;99.90;;;;;;5053871;28;19961;-88
2023/08/28 01:25:10;;;;;;;;;;;12.70;99.90;;;;;;5053051;28;20020;-88
2023/08/28 01:27:39;;;;;;;;;;;12.80;99.90;;;;;;5053171;28;19956;-89
2023/08/28 01:30:05;;;;;;;;;;;12.70;99.90;;;;;;5053087;28;19956;-88
2023/08/28 01:32:31;;;;;;;;;;;12.80;99.90;;;;;;5035103;28;20476;-90
2023/08/28 01:34:57;;;;;;;;;;;12.80;99.90;;;;;;5052055;28;20052;-88
2023/08/28 01:37:26;;;;;;;;;;;12.80;99.90;;;;;;5052173;28;20324;-88
2023/08/28 01:39:52;;;;;;;;;;;12.80;99.90;;;;;;5052660;28;19924;-89
2023/08/28 01:42:18;;;;;;;;;;;12.80;99.90;;;;;;5049378;28;20004;-89
2023/08/28 01:44:44;;;;;;;;;;;12.90;99.90;;;;;;5050985;28;20049;-89
2023/08/28 01:47:10;;;;;;;;;;;12.80;99.90;;;;;;5052740;28;19975;-89
2023/08/28 01:49:35;;;;;;;;;;;12.80;99.90;;;;;;5052080;28;19928;-89
2023/08/28 01:52:01;;;;;;;;;;;13.10;99.90;;;;;;5031368;28;19938;-89
2023/08/28 01:54:26;;;;;;;;;;;12.80;99.90;;;;;;5036132;28;20012;-88
2023/08/28 01:56:52;;;;;;;;;;;12.90;99.90;;;;;;5035238;28;19937;-88
2023/08/28 01:59:18;;;;;;;;;;;12.80;99.90;;;;;;5052412;28;20066;-88
2023/08/28 02:01:43;;;;;;;;;;;12.90;99.90;;;;;;5052267;28;19998;-88
2023/08/28 02:04:09;;;;;;;;;;;12.80;99.90;;;;;;5051321;28;19924;-88
2023/08/28 02:06:35;;;;;;;;;;;12.80;99.90;;;;;;5052562;28;19921;-89
2023/08/28 02:09:00;;;;;;;;;;;12.70;99.90;;;;;;5052420;28;19920;-88
2023/08/28 02:11:26;;;;;;;;;;;12.90;99.90;;;;;;5052503;28;20433;-89
2023/08/28 02:13:51;;;;;;;;;;;12.80;99.90;;;;;;5052334;28;19991;-89
2023/08/28 02:16:17;;;;;;;;;;;12.60;99.90;;;;;;5071016;28;20015;-88
2023/08/28 02:18:43;;;;;;;;;;;12.80;99.90;;;;;;5064109;28;19981;-87
2023/08/28 02:21:08;;;;;;;;;;;12.60;99.90;;;;;;5071226;28;19934;-88
2023/08/28 02:23:34;;;;;;;;;;;12.70;99.90;;;;;;5053723;28;19942;-88
2023/08/28 02:25:59;;;;;;;;;;;12.50;99.90;;;;;;5072171;28;19936;-87
2023/08/28 02:28:25;;;;;;;;;;;12.40;99.90;;;;;;5072255;28;19920;-87
2023/08/28 02:30:51;;;;;;;;;;;12.40;99.90;;;;;;5072271;28;19951;-88
2023/08/28 02:33:17;;;;;;;;;;;12.40;99.90;;;;;;5070874;28;20024;-88
2023/08/28 02:35:43;;;;;;;;;;;12.60;99.90;;;;;;5054399;28;20396;-87
2023/08/28 02:38:11;;;;;;;;;;;12.50;99.90;;;;;;5064295;28;19932;-87
2023/08/28 02:40:40;;;;;;;;;;;12.30;99.90;;;;;;5035190;28;20486;-87
2023/08/28 02:43:05;;;;;;;;;;;12.30;99.90;;;;;;5062311;28;19931;-87
2023/08/28 02:45:38;;;;;;;;;;;12.20;99.90;;;;;;5071553;28;20269;-87
2023/08/28 02:48:04;;;;;;;;;;;12.20;99.90;;;;;;5070141;28;19950;-88
2023/08/28 02:50:30;;;;;;;;;;;12.20;99.90;;;;;;5072139;28;20315;-88
2023/08/28 02:52:56;;;;;;;;;;;12.20;99.90;;;;;;5071037;28;19964;-87
2023/08/28 02:55:22;;;;;;;;;;;12.20;99.90;;;;;;5073251;28;19951;-87
2023/08/28 02:57:48;;;;;;;;;;;12.20;99.90;;;;;;5070517;28;20414;-88
2023/08/28 03:00:14;;;;;;;;;;;12.20;99.90;;;;;;5071307;28;19955;-87
2023/08/28 03:02:39;;;;;;;;;;;12.10;99.90;;;;;;5037919;28;19935;-88
2023/08/28 03:05:05;;;;;;;;;;;12.20;99.90;;;;;;5071027;28;19948;-88
2023/08/28 03:07:31;;;;;;;;;;;12.20;99.90;;;;;;5072079;28;19956;-87
2023/08/28 03:09:56;;;;;;;;;;;12.10;99.90;;;;;;5072063;28;20033;-88
2023/08/28 03:12:22;;;;;;;;;;;12.10;99.90;;;;;;5072980;28;19963;-87
2023/08/28 03:14:48;;;;;;;;;;;12.40;99.90;;;;;;5070392;28;20483;-87
2023/08/28 03:17:13;;;;;;;;;;;12.10;99.90;;;;;;5072563;28;19992;-87
2023/08/28 03:19:39;;;;;;;;;;;12.60;99.90;;;;;;5072645;28;20453;-87
2023/08/28 03:22:04;;;;;;;;;;;12.10;99.90;;;;;;5072136;28;19952;-87
2023/08/28 03:24:30;;;;;;;;;;;12.00;99.90;;;;;;5069235;28;19950;-85
2023/08/28 03:26:56;;;;;;;;;;;12.00;99.90;;;;;;5072244;28;19944;-87
2023/08/28 03:29:21;;;;;;;;;;;12.10;99.90;;;;;;5073083;28;20000;-86
2023/08/28 03:31:47;;;;;;;;;;;12.00;99.90;;;;;;5054869;28;19963;-87
2023/08/28 03:34:12;;;;;;;;;;;12.20;99.90;;;;;;5072749;28;19971;-87
2023/08/28 03:36:38;;;;;;;;;;;12.00;99.90;;;;;;5053207;28;19988;-88
2023/08/28 03:39:03;;;;;;;;;;;11.90;99.90;;;;;;5071981;28;20045;-87
2023/08/28 03:41:29;;;;;;;;;;;11.90;99.90;;;;;;5072169;28;20405;-87
2023/08/28 03:43:55;;;;;;;;;;;11.90;99.90;;;;;;5071111;28;20387;-87
2023/08/28 03:46:20;;;;;;;;;;;12.00;99.90;;;;;;5070182;28;20026;-88
2023/08/28 03:48:46;;;;;;;;;;;11.90;99.90;;;;;;5071550;28;19942;-87
2023/08/28 03:51:11;;;;;;;;;;;12.00;99.90;;;;;;5069311;28;20003;-87
2023/08/28 03:53:37;;;;;;;;;;;12.00;99.90;;;;;;5052376;28;19995;-88
2023/08/28 03:56:03;;;;;;;;;;;11.90;99.90;;;;;;5046358;28;20427;-87
2023/08/28 03:58:29;;;;;;;;;;;12.00;99.90;;;;;;5074634;28;19923;-88
2023/08/28 04:00:55;;;;;;;;;;;11.90;99.90;;;;;;5075218;28;19924;-87
2023/08/28 04:03:20;;;;;;;;;;;12.00;99.90;;;;;;5072695;28;19920;-87
2023/08/28 04:05:48;;;;;;;;;;;11.90;99.90;;;;;;5058420;28;20415;-88
2023/08/28 04:08:14;;;;;;;;;;;11.90;99.90;;;;;;5074672;28;19929;-86
2023/08/28 04:10:40;;;;;;;;;;;12.00;99.90;;;;;;5075779;28;19954;-87
2023/08/28 04:13:06;;;;;;;;;;;11.90;99.90;;;;;;5056122;28;19921;-87
2023/08/28 04:15:33;;;;;;;;;;;11.90;99.90;;;;;;5074372;28;19920;-86
2023/08/28 04:17:59;;;;;;;;;;;11.90;99.90;;;;;;5075145;28;20069;-87
2023/08/28 04:20:25;;;;;;;171.40;117.88;;;11.90;99.90;;;;;;5072556;28;20496;-86
2023/08/28 04:22:51;;;;;;;;;;;12.00;99.90;;;;;;5072898;28;20048;-87
2023/08/28 04:25:16;;;;;;;;;;;12.10;99.90;;;;;;5075284;28;20071;-88
2023/08/28 04:27:42;;;;;;;;;;;12.00;99.90;;;;;;5074923;28;19979;-87
2023/08/28 04:30:09;;;;;;;;;;;12.00;99.90;;;;;;5057758;28;20379;-87
2023/08/28 04:32:34;;;;;;;;;;;12.00;99.90;;;;;;5055752;28;20072;-87
2023/08/28 04:35:00;;;;;;;;;;;12.00;99.90;;;;;;5074136;28;20071;-86
2023/08/28 04:37:26;;;;;;;;;;;12.00;99.90;;;;;;5071774;28;20000;-87
2023/08/28 04:39:52;;;;;;;;;;;12.30;99.90;;;;;;5073537;28;20413;-88
2023/08/28 04:42:17;;;;;;;;;;;11.90;99.90;;;;;;5074070;28;20035;-88
2023/08/28 04:44:43;;;;;;;;;;;11.90;99.90;;;;;;5055830;28;20030;-88
2023/08/28 04:47:09;;;;;;;;;;;11.90;99.90;;;;;;5073510;28;20041;-86
2023/08/28 04:49:34;;;;;;;;;;;11.90;99.90;;;;;;5073637;28;19973;-87
2023/08/28 04:52:00;;;;;;;;;;;11.90;99.90;;;;;;5055820;28;20417;-88
2023/08/28 04:54:25;;;;;;;;;;;11.90;99.90;;;;;;5067180;28;19969;-88
2023/08/28 04:56:51;;;;;;;;;;;11.90;99.90;;;;;;5037312;28;19977;-88
2023/08/28 04:59:17;;;;;;;;;;;12.00;99.90;;;;;;5055066;28;19977;-87
2023/08/28 05:01:42;;;;;;;;;;;12.10;99.90;;;;;;5061260;28;19976;-87
2023/08/28 05:04:08;;;;;;;;;;;11.90;99.90;;;;;;5075106;28;20026;-87
2023/08/28 05:06:33;;;;;;;;;;;11.90;99.90;;;;;;5069362;28;20056;-87
2023/08/28 05:08:59;;;;;;;;;;;11.90;99.90;;;;;;5054024;28;19985;-88
2023/08/28 05:11:25;;;;;;;;;;;12.20;99.90;;;;;;5062325;28;20348;-87
2023/08/28 05:13:51;;;;;;;;;;;11.90;99.90;;;;;;5073576;28;20082;-87
2023/08/28 05:16:17;;;;;;;;;;;11.90;99.90;;;;;;5072600;28;19974;-87
2023/08/28 05:18:42;;;;;;;;;;;11.90;99.90;;;;;;5073373;28;19973;-88
2023/08/28 05:21:08;;;;;;;;;;;11.90;99.90;;;;;;5073078;28;20448;-86
2023/08/28 05:23:34;;;;;;;;;;;11.90;99.90;;;;;;5071883;28;19973;-86
2023/08/28 05:25:59;;;;;;;;;;;11.90;99.90;;;;;;5071887;28;20025;-87
2023/08/28 05:28:25;;;;;;;;;;;12.00;99.90;;;;;;5072654;28;20453;-85
2023/08/28 05:30:50;;;;;;;;;;;12.20;99.90;;;;;;5072341;28;19976;-88
2023/08/28 05:33:16;;;;;;;;;;;12.00;99.90;;;;;;5072714;28;19988;-87
2023/08/28 05:35:42;;;;;;;;;;;12.20;99.90;;;;;;5055287;28;19973;-88
2023/08/28 05:38:07;;;;;;;;;;;12.10;99.90;;;;;;5073445;28;20003;-87
2023/08/28 05:40:33;;;;;;;;;;;12.40;99.90;;;;;;5073037;28;19973;-88
2023/08/28 05:42:59;;;;;;;;;;;12.20;99.90;;;;;;5072035;28;20282;-87
2023/08/28 05:45:25;;;;;;;;;;;12.30;99.90;;;;;;5053913;28;20409;-88
2023/08/28 05:47:50;;;;;;;;;;;12.40;99.90;;;;;;5073989;28;19987;-87
2023/08/28 05:50:18;;;;;;;;;;;12.40;99.90;;;;;;5074151;28;20063;-89
2023/08/28 05:52:44;;;;;;;;;;;12.50;99.90;;;;;;5054857;28;19920;-86
2023/08/28 05:55:09;;;;;;;;;;;12.50;99.90;;;;;;5069804;28;19928;-87
2023/08/28 05:57:35;;;;;;;;;;;12.60;99.90;;;;;;5073728;28;20376;-86
2023/08/28 06:00:02;;;;;;;156.07;118.13;;;12.60;99.90;;;;;;5072318;28;19920;-87
2023/08/28 06:02:27;;;;;;;;;;;12.60;99.90;;;;;;5056794;28;20056;-86
2023/08/28 06:04:53;;;;;;;;;;;12.60;99.90;;;;;;5059733;28;19972;-85
2023/08/28 06:07:19;;;;;;;;;;;12.60;99.90;;;;;;5072069;28;20421;-86
2023/08/28 06:09:44;;;;;;;;;;;12.70;99.90;;;;;;5075422;28;20485;-85
2023/08/28 06:12:10;;;;;;;;;;;12.70;99.90;;;;;;5081816;28;19980;-88
2023/08/28 06:14:36;;;;;;;;;;;12.70;99.90;;;;;;5081007;28;19993;-86
2023/08/28 06:17:03;;;;;;;;;;;12.80;99.90;;;;;;5062574;28;20373;-88
2023/08/28 06:19:29;;;;;;;;;;;12.90;99.90;;;;;;5054530;28;20051;-88
2023/08/28 06:21:54;;;;;;;;;;;13.00;99.90;;;;;;5055185;28;20052;-86
2023/08/28 06:24:20;;;;;;;;;;;12.90;99.90;;;;;;5056083;28;19998;-88
2023/08/28 06:26:45;;;;;;;;;;;13.30;99.90;;;;;;5054304;28;19958;-89
2023/08/28 06:29:11;;;;;;;;;;;13.40;99.90;;;;;;5071996;28;20347;-87
2023/08/28 06:31:36;;;;;;;;;;;13.50;99.90;;;;;;5073789;28;19976;-87
2023/08/28 06:34:02;;;;;;;;;;;13.50;99.90;;;;;;5055472;28;19989;-88
2023/08/28 06:36:28;;;;;;;;;;;13.80;99.90;;;;;;5037583;28;19976;-88
2023/08/28 06:38:53;;;;;;;;;;;14.00;99.90;;;;;;5055773;28;20029;-89
2023/08/28 06:41:19;;;;;;;;;;;14.00;99.90;;;;;;5038447;28;19943;-88
2023/08/28 06:43:46;;;;;;;;;;;14.20;99.90;;;;;;5073508;28;19969;-89
2023/08/28 06:46:12;;;;;;;;;;;14.30;99.90;;;;;;5054968;28;20428;-88
2023/08/28 06:48:38;;;;;;;;;;;14.50;99.90;;;;;;5055848;28;19973;-90
2023/08/28 07:04:31;;;;;;;;;;;15.30;99.90;;;;;;5073271;28;19999;-86
2023/08/28 07:06:57;;;;;;;;;;;15.40;99.90;;;;;;5066687;28;19960;-88
2023/08/28 07:09:23;;;;;;;;;;;15.50;99.90;;;;;;5040867;28;19974;-90
2023/08/28 07:11:48;;;;;;;;;;;15.60;99.90;;;;;;5055262;28;19920;-83
2023/08/28 07:14:14;;;;;;;;;;;15.80;99.90;;;;;;5054788;28;19962;-85
2023/08/28 07:16:40;;;;;;;;;;;15.90;99.90;;;;;;5035709;28;19928;-84
2023/08/28 07:19:05;;;;;;;45.50;42.80;;;16.10;99.90;;;;;;5066223;28;20500;-83
2023/08/28 07:21:31;;;;;;;;;;;16.20;99.90;;;;;;5030807;28;20029;-84
2023/08/28 07:23:57;;;;;;;;;;;16.40;99.90;;;;;;5042894;28;20070;-85
2023/08/28 07:26:22;;;;;;;;;;;16.50;99.90;;;;;;5070628;28;20069;-85
2023/08/28 07:28:48;;;;;;;;;;;16.60;99.90;;;;;;5054628;28;20463;-84
2023/08/28 07:31:14;;;;;;;;;;;16.80;99.90;;;;;;5073892;28;19972;-85
2023/08/28 07:33:40;;;;;;;;;;;16.90;99.90;;;;;;5058353;28;19988;-87
2023/08/28 07:42:49;;;;;;;;;;;17.40;99.90;;;;;;5076847;28;19964;-87
2023/08/28 07:45:15;;;;;;;;;;;17.40;99.90;;;;;;5058558;28;20416;-86
2023/08/28 07:47:41;;;;;;;;;;;17.50;99.90;;;;;;5056474;28;19968;-86
2023/08/28 07:50:07;;;;;;;;;;;17.60;99.90;;;;;;5057970;28;20318;-85
2023/08/28 07:52:33;;;;;;;;;;;17.80;99.90;;;;;;5029307;28;19993;-86
2023/08/28 07:54:58;;;;;;;;;;;18.00;99.90;;;;;;5056796;28;19988;-86
2023/08/28 07:57:24;;;;;;;;;;;18.20;99.90;;;;;;5057861;28;19975;-86
2023/08/28 07:59:49;;;;;;;;;;;18.30;99.90;;;;;;5073665;28;20030;-86
2023/08/28 08:02:17;;;;;;;;;;;18.50;99.90;;;;;;5040499;28;19969;-86
2023/08/28 08:04:43;;;;;;;;;;;18.60;99.90;;;;;;5074908;28;20431;-86
2023/08/28 08:07:08;;;;;;;;;;;18.70;99.90;;;;;;5062363;28;19954;-87
2023/08/28 08:09:34;;;;;;;;;;;18.90;99.90;;;;;;5043739;28;19975;-88
2023/08/28 08:12:01;;;;;;;;;;;19.00;99.90;;;;;;5060260;28;20079;-88
2023/08/28 08:14:27;;;;;;;;;;;19.10;99.90;;;;;;5067686;28;20024;-90
2023/08/28 08:16:52;;;;;;;;;;;19.10;99.90;;;;;;5072482;28;20486;-87
2023/08/28 08:19:18;;;;;;;466.37;202.07;;;19.30;99.90;;;;;;5080751;28;20477;-90
2023/08/28 08:21:44;;;;;;;;;;;19.40;99.90;;;;;;5055711;28;20303;-85
2023/08/28 08:24:09;;;;;;;;;;;19.60;99.90;;;;;;5074609;28;19962;-88
2023/08/28 08:26:35;;;;;;;;;;;19.80;99.90;;;;;;5037994;28;20003;-89
2023/08/28 08:29:00;;;;;;;;;;;19.80;99.90;;;;;;5056374;28;20019;-85
2023/08/28 08:31:26;;;;;;;;;;;19.80;99.90;;;;;;5039503;28;19954;-86
2023/08/28 08:33:52;;;;;;;471.52;194.90;;;19.80;99.90;;;;;;5055842;28;20483;-85
2023/08/28 08:36:20;;;;;;;;;;;19.90;99.90;;;;;;5057292;28;20063;-88
2023/08/28 08:38:46;;;;;;;;;;;19.90;99.90;;;;;;5074185;28;19953;-84
2023/08/28 08:41:12;;;;;;;;;;;20.00;99.90;;;;;;5056830;28;20087;-85
2023/08/28 08:43:37;;;;;;;;;;;20.00;99.90;;;;;;5074087;28;20402;-84
2023/08/28 08:46:07;;;;;;;514.17;195.00;;;20.10;99.90;;;;;;5073384;28;19963;-84
2023/08/28 08:48:36;;;;;;;;;;;20.30;99.90;;;;;;5067653;28;20048;-84
2023/08/28 08:51:07;;;;;;;399.90;182.05;;;20.50;99.90;;;;;;5037335;28;21025;-83
2023/08/28 08:54:01;;;;;;;393.05;170.38;;;20.70;99.90;;;;;;5057569;28;20560;-85
2023/08/28 08:56:31;;;;;;;288.88;157.05;;;20.90;99.90;;;;;;5054996;28;20047;-85
2023/08/28 08:58:58;;;;;;;;;;;20.70;99.90;;;;;;5074294;28;20060;-84
2023/08/28 09:01:25;;;;;;;253.30;159.70;;;20.80;99.90;;;;;;5037477;28;20537;-84
2023/08/28 09:03:51;;;;;;;276.35;154.95;;;20.70;99.90;;;;;;5055029;28;20052;-84
2023/08/28 09:06:17;;;;;;;286.40;158.27;;;20.80;99.90;;;;;;5053915;28;20037;-85
2023/08/28 09:08:43;;;;;;;259.47;153.47;;;20.90;99.90;;;;;;5073279;28;20401;-84
2023/08/28 09:11:09;;;;;;;250.93;151.07;;;21.10;99.90;;;;;;5072710;28;20037;-84
2023/08/28 09:13:35;;;;;;;257.25;155.75;;;21.30;99.90;;;;;;5074880;28;20158;-84
2023/08/28 09:16:03;;;;;;;242.50;152.65;;;21.50;99.90;;;;;;5073192;28;20049;-84
2023/08/28 09:18:30;;;;;;;248.30;153.55;;;21.70;99.90;;;;;;5073602;28;20040;-84
2023/08/28 09:21:09;;;;;;;244.77;152.57;;;21.70;99.90;;;;;;5078234;28;20032;-85
2023/08/28 09:23:44;;;;;;;211.40;146.88;;;21.60;99.90;;;;;;5061361;28;20036;-84
2023/08/28 09:26:14;;;;;;;209.20;148.45;;;21.30;99.90;;;;;;5048378;28;20036;-89
2023/08/28 09:28:40;;;;;;;216.13;146.25;;;21.10;99.90;;;;;;5066530;28;20064;-89
2023/08/28 09:31:06;;;;;;;204.77;144.65;;;20.80;99.90;;;;;;5088373;28;20032;-88
2023/08/28 09:33:54;;;;;;;;;;;;;;;;;;;;;
2023/08/28 09:36:22;;;;;;;198.27;142.55;;;20.60;99.90;;;;;;5026060;28;20063;-89
2023/08/28 09:39:14;;;;;;;202.77;143.13;;;20.70;99.90;;;;;;5040417;28;20045;-89
2023/08/28 09:41:49;;;;;;;208.18;143.95;;;20.60;99.90;;;;;;5064379;28;20059;-86
2023/08/28 09:44:38;;;;;;;211.27;145.52;;;20.60;99.90;;;;;;5140547;22;20041;-93
2023/08/28 09:47:05;;;;;;;206.45;143.45;;;20.60;99.90;;;;;;4910353;29;20063;-89
2023/08/28 09:49:43;;;;;;;198.88;141.38;;;20.50;99.90;;;;;;4942320;29;20050;-88
2023/08/28 09:52:11;;;;;;;203.37;143.83;;;20.60;99.90;;;;;;4933955;29;20087;-88
2023/08/28 09:54:36;;;;;;;195.80;142.18;;;20.60;99.90;;;;;;4916931;29;20063;-86
2023/08/28 09:57:14;;;;;;;194.30;140.63;;;20.70;99.90;;;;;;4949184;29;20091;-89
2023/08/28 09:59:40;;;;;;;170.65;134.57;;;20.70;99.90;;;;;;4933684;29;20500;-88
2023/08/28 10:02:07;;;;;;;171.98;134.82;;;20.50;99.90;;;;;;4947547;29;20075;-86
2023/08/28 10:04:35;;;;;;;170.60;134.93;;;20.40;99.90;;;;;;4937782;29;20048;-86
2023/08/28 10:07:04;;;;;;;178.15;137.10;;;20.30;99.90;;;;;;4943690;29;20043;-85
2023/08/28 10:09:34;;;;;;;175.85;135.80;;;20.20;99.90;;;;;;4915368;29;20075;-85
2023/08/28 10:12:01;;;;;;;168.98;134.05;;;20.20;99.90;;;;;;4921597;29;20044;-86
2023/08/28 10:14:29;;;;;;;167.02;133.38;;;20.10;99.90;;;;;;4918822;29;20420;-87
2023/08/28 10:17:02;;;;;;;167.68;133.73;;;20.30;99.90;;;;;;4935165;29;20058;-85
2023/08/28 10:19:42;;;;;;;157.23;130.60;;;20.30;99.90;;;;;;4930483;23;20029;-92
2023/08/28 10:22:08;;;;;;;162.48;131.95;;;20.30;99.90;;;;;;4946491;29;20043;-88
2023/08/28 10:24:41;;;;;;;163.40;132.48;;;20.40;99.90;;;;;;4949545;29;20055;-92
2023/08/28 10:27:08;;;;;;;142.57;124.05;;;20.20;99.90;;;;;;4956367;29;20043;-88
2023/08/28 10:29:36;;;;;;;142.48;124.57;;;20.10;99.90;;;;;;4958336;29;20043;-88
2023/08/28 10:32:13;;;;;;;141.93;119.68;;;20.10;99.90;;;;;;4940290;29;20094;-93
2023/08/28 10:34:42;;;;;;;181.73;137.25;;;20.00;99.90;;;;;;4927156;29;20114;-93
2023/08/28 10:37:09;;;;;;;145.18;123.55;;;20.00;99.90;;;;;;4949418;29;20050;-92
2023/08/28 10:39:39;;;;;;;170.38;134.73;;;20.00;99.90;;;;;;4942134;29;20035;-90
2023/08/28 10:42:17;;;;;;;155.95;130.45;;;20.10;99.90;;;;;;4937149;29;20040;-91
2023/08/28 10:45:11;;;;;;;143.98;124.88;;;20.30;99.90;;;;;;4938703;29;20050;-94
2023/08/28 10:47:39;;;;;;;145.15;124.55;;;20.40;99.90;;;;;;4942018;29;20047;-88
2023/08/28 10:54:20;;;;;;;146.95;126.72;;;21.00;99.90;;;;;;4952640;29;20093;-90
2023/08/28 10:56:54;;;;;;;148.82;127.55;;;21.20;99.90;;;;;;4940555;29;20043;-90
2023/08/28 10:59:24;;;;;;;149.13;127.70;;;21.20;99.90;;;;;;4940241;29;20475;-92
2023/08/28 11:01:53;;;;;;;151.20;127.38;;;21.10;99.90;;;;;;4956304;29;20051;-93
2023/08/28 11:04:19;;;;;;;156.43;129.10;;;20.90;99.90;;;;;;4923045;29;20110;-92
2023/08/28 11:06:45;;;;;;;159.73;129.50;;;20.70;99.90;;;;;;4960356;29;20043;-93
2023/08/28 11:09:27;;;;;;;146.77;127.35;;;20.80;99.90;;;;;;4960958;29;20051;-90
2023/08/28 11:12:15;;;;;;;118.50;107.13;;;20.60;99.90;;;;;;4944535;29;20074;-92
2023/08/28 11:14:53;;;;;;;;;;;20.40;99.90;;;;;;4959448;29;20050;-90
2023/08/28 11:17:20;;;;;;;;;;;20.30;99.90;;;;;;4926630;29;19930;-92
2023/08/28 11:19:51;;;;;;;;;;;20.30;99.90;;;;;;4928648;28;20263;-92
2023/08/28 11:22:27;;;;;;;;;;;20.30;99.90;;;;;;4959383;29;20302;-92
2023/08/28 11:24:53;;;;;;;;;;;20.40;99.90;;;;;;4940831;29;20050;-92
2023/08/28 11:27:42;;;;;;;;;;;20.30;99.90;;;;;;4923373;29;20395;-91
2023/08/28 11:30:10;;;;;;;;;;;20.60;99.90;;;;;;4900560;29;19927;-89
2023/08/28 11:32:36;;;;;;;;;;;20.80;99.90;;;;;;4870169;29;19923;-86
2023/08/28 11:35:31;;;;;;;124.35;112.28;;;21.20;99.90;;;;;;4884505;29;20502;-92
2023/08/28 11:37:57;;;;;;;;;;;21.70;99.90;;;;;;4871228;29;20391;-93
2023/08/28 11:40:25;;;;;;;;;;;21.80;99.90;;;;;;4919096;28;20064;-91
2023/08/28 11:43:08;;;;;;;;;;;21.90;99.90;;;;;;4902488;29;20548;-88
2023/08/28 11:45:34;;;;;;;;;;;21.80;99.90;;;;;;4873388;29;20073;-90
2023/08/28 11:48:01;;;;;;;213.73;146.18;;;21.70;99.90;;;;;;4882375;29;20844;-91
2023/08/28 11:50:27;;;;;;;;;;;21.50;99.90;;;;;;4883349;29;20044;-90
2023/08/28 11:52:53;;;;;;;199.40;142.27;;;21.50;99.90;;;;;;4897749;29;20508;-90
2023/08/28 11:55:22;;;;;;;;;;;21.30;99.90;;;;;;4883612;29;20128;-87
2023/08/28 11:57:51;;;;;;;195.88;142.80;;;21.10;99.90;;;;;;4881667;29;20492;-87
2023/08/28 12:00:17;;;;;;;;;;;21.00;99.90;;;;;;4882782;29;20087;-89
2023/08/28 12:02:45;;;;;;;143.45;127.32;;;20.90;99.90;;;;;;4897606;29;20531;-87
2023/08/28 12:05:14;;;;;;;113.05;103.18;;;20.70;99.90;;;;;;4898634;29;20049;-90
2023/08/28 12:07:43;;;;;;;;;;;20.60;99.90;;;;;;4941920;29;20055;-87
2023/08/28 12:10:15;;;;;;;136.98;122.45;;;20.60;99.90;;;;;;4921937;29;20491;-88
2023/08/28 12:12:41;;;;;;;;;;;20.50;99.90;;;;;;4920523;29;20058;-88
2023/08/28 12:15:10;;;;;;;;;;;20.50;99.90;;;;;;4941004;29;19922;-89
2023/08/28 12:17:36;;;;;;;;;;;20.60;99.90;;;;;;4956949;28;19919;-88
2023/08/28 12:20:04;;;;;;;;;;;20.70;99.90;;;;;;4940434;29;19930;-88
2023/08/28 12:22:32;;;;;;;;;;;20.90;99.90;;;;;;4957885;29;19945;-88
2023/08/28 12:24:58;;;;;;;153.40;128.85;;;21.10;99.90;;;;;;4957251;29;21098;-88
2023/08/28 12:27:25;;;;;;;;;;;21.30;99.90;;;;;;4958177;29;20043;-88
2023/08/28 12:29:51;;;;;;;;;;;21.70;99.90;;;;;;4940073;29;19927;-88
2023/08/28 12:32:18;;;;;;;;;;;22.10;99.90;;;;;;4940348;29;20016;-89
2023/08/28 12:34:44;;;;;;;;;;;22.20;99.90;;;;;;4957964;29;19930;-88
2023/08/28 12:37:13;;;;;;;;;;;22.40;99.90;;;;;;4958009;29;19923;-88
2023/08/28 12:39:49;;;;;;;226.85;147.57;;;22.50;99.90;;;;;;4931484;29;20488;-88
2023/08/28 12:42:17;;;;;;;104.38;94.35;;;22.50;99.90;;;;;;4921112;29;20051;-89
2023/08/28 12:44:43;;;;;;;748.80;560.33;;;22.40;99.90;;;;;;4920552;29;20044;-89
2023/08/28 12:47:13;;;;;;;995.42;714.92;;;22.10;99.90;;;;;;4905135;29;20083;-87
2023/08/28 12:49:40;;;;;;;1150.00;638.67;;;21.80;99.90;;;;;;4904531;29;20134;-89
2023/08/28 12:52:07;;;;;;;1168.73;579.90;;;22.00;99.90;;;;;;4920788;29;20450;-89
2023/08/28 12:54:40;;;;;;;960.47;554.80;;;22.20;99.90;;;;;;4920921;29;20500;-88
2023/08/28 12:57:07;;;;;;;853.20;493.97;;;22.30;99.90;;;;;;4937761;29;20043;-89
2023/08/28 12:59:34;;;;;;;847.73;579.70;;;22.50;99.90;;;;;;4910766;29;20051;-88
2023/08/28 13:02:00;;;;;;;774.13;459.53;;;22.70;99.90;;;;;;4939435;29;20043;-89
2023/08/28 13:04:27;;;;;;;711.33;213.13;;;22.90;99.90;;;;;;4938952;29;20047;-86
2023/08/28 13:06:53;;;;;;;731.67;283.07;;;22.80;99.90;;;;;;4939566;29;20102;-88
2023/08/28 13:09:21;;;;;;;720.43;219.60;;;22.60;99.90;;;;;;4923509;29;20113;-86
2023/08/28 13:11:47;;;;;;;768.17;459.40;;;22.50;99.90;;;;;;4939432;29;20054;-90
2023/08/28 13:14:13;;;;;;;773.50;450.83;;;22.60;99.90;;;;;;4945510;29;20054;-88
2023/08/28 13:16:40;;;;;;;720.13;276.47;;;22.80;99.90;;;;;;4926805;29;20058;-85
2023/08/28 13:43:08;;;;;;;1244.18;715.45;;;24.00;99.90;;;;;;5151517;27;1396017;-90
2023/08/28 13:46:14;;;;;;;1236.07;707.95;;;24.20;99.90;;;;;;5160699;27;20046;-91
2023/08/28 13:48:39;;;;;;;1232.07;714.87;;;24.20;99.90;;;;;;5197152;27;20057;-88
2023/08/28 13:51:50;;;;;;;;;;;;;;;;;;;;;
2023/08/28 13:54:47;;;;;;;;;;;;;;;;;;;;;
2023/08/28 13:57:54;;;;;;;1229.27;717.17;;;24.20;99.90;;;;;;5154156;27;19923;-90
2023/08/28 14:00:58;;;;;;;1229.40;705.55;;;24.30;99.90;;;;;;5154071;27;20051;-88
2023/08/28 14:04:25;;;;;;;1262.27;636.83;;;24.20;99.10;;;;;;5030638;28;20097;-89
2023/08/28 14:06:52;;;;;;;;;;;24.10;99.70;;;;;;4978160;28;20082;-89
2023/08/28 14:09:20;;;;;;;1222.87;714.97;;;23.90;99.90;;;;;;4991769;28;19972;-89
2023/08/28 14:11:48;;;;;;;1221.77;699.80;;;24.20;99.90;;;;;;4992404;28;20060;-89
2023/08/28 14:15:23;;;;;;;1232.97;717.83;;;24.20;99.90;;;;;;4992283;28;20081;-90
2023/08/28 14:17:54;;;;;;;1274.60;604.43;;;24.30;99.90;;;;;;4952493;29;20059;-88
2023/08/28 14:20:23;;;;;;;1231.00;703.15;;;23.90;98.90;;;;;;4952659;29;20071;-88
2023/08/28 14:22:49;;;;;;;1276.87;603.53;;;23.60;99.90;;;;;;4952982;29;20542;-88
2023/08/28 14:25:14;;;;;;;1228.20;697.90;;;23.50;99.90;;;;;;4951728;29;20087;-88
2023/08/28 14:27:43;;;;;;;1302.53;583.97;;;23.60;99.90;;;;;;4966152;29;20086;-91
2023/08/28 14:30:10;;;;;;;1241.03;659.40;;;23.30;99.90;;;;;;4935207;29;20250;-87
2023/08/28 14:32:38;;;;;;;1228.00;629.77;;;23.20;99.90;;;;;;4953574;29;20070;-88